Time;durP1;ratioP1;P1;durP2;ratioP2;P2;SDS_P1;SDS_P2;PMS_P1;PMS_P2;Temp;Humidity;BMP_temperature;BMP_pressure;BME280_temperature;BME280_humidity;BME280_pressure;Samples;Min_cycle;Max_cycle;Signal;HPM_P1;HPM_P2
2024/02/18 00:00:26;;;;;;;12.63;8.20;;;7.00;99.90;;;;;;2059114;28;20241;-75
2024/02/18 00:01:27;;;;;;;9.97;7.47;;;6.90;99.90;;;;;;2062598;28;20282;-76
2024/02/18 00:02:27;;;;;;;12.37;8.17;;;6.90;99.90;;;;;;2055458;28;20234;-76
2024/02/18 00:03:28;;;;;;;11.90;8.07;;;6.80;99.90;;;;;;2054793;28;20223;-77
2024/02/18 00:04:32;;;;;;;12.73;8.50;;;6.80;99.90;;;;;;2062041;28;20264;-76
2024/02/18 00:05:33;;;;;;;11.75;8.07;;;6.90;99.90;;;;;;2062976;28;20253;-76
2024/02/18 00:06:34;;;;;;;13.10;8.33;;;6.80;99.90;;;;;;2056453;28;20244;-76
2024/02/18 00:07:35;;;;;;;12.60;9.20;;;6.80;99.90;;;;;;2061870;28;20237;-76
2024/02/18 00:08:36;;;;;;;13.00;9.03;;;6.70;99.90;;;;;;2048739;28;20264;-76
2024/02/18 00:09:36;;;;;;;13.03;8.53;;;6.70;99.90;;;;;;2045594;28;20479;-76
2024/02/18 00:10:38;;;;;;;13.87;9.37;;;6.70;99.90;;;;;;2051862;28;20246;-77
2024/02/18 00:11:39;;;;;;;10.70;8.13;;;6.60;99.90;;;;;;2050206;28;20230;-77
2024/02/18 00:12:40;;;;;;;13.60;8.67;;;6.70;99.90;;;;;;2045749;28;20223;-76
2024/02/18 00:13:40;;;;;;;12.37;8.87;;;6.60;99.90;;;;;;2058601;28;20226;-77
2024/02/18 00:14:41;;;;;;;12.53;8.67;;;6.60;99.90;;;;;;2055700;28;20236;-76
2024/02/18 00:15:41;;;;;;;12.00;8.07;;;6.60;99.90;;;;;;2058418;28;20224;-76
2024/02/18 00:16:42;;;;;;;12.33;9.20;;;6.60;99.90;;;;;;2065422;28;20224;-74
2024/02/18 00:17:43;;;;;;;15.33;9.00;;;6.60;99.90;;;;;;2054150;28;20221;-76
2024/02/18 00:18:44;;;;;;;12.77;8.57;;;6.60;99.90;;;;;;2055150;28;20229;-75
2024/02/18 00:19:44;;;;;;;11.77;8.23;;;6.50;99.90;;;;;;2053564;28;20228;-76
2024/02/18 00:20:45;;;;;;;15.07;7.90;;;6.50;99.90;;;;;;2053842;28;20754;-76
2024/02/18 00:21:46;;;;;;;10.10;7.23;;;6.50;99.90;;;;;;2053241;28;20218;-75
2024/02/18 00:22:46;;;;;;;9.70;7.23;;;6.40;99.90;;;;;;2046853;28;20713;-76
2024/02/18 00:23:47;;;;;;;13.47;7.63;;;6.40;99.90;;;;;;2043498;29;20219;-75
2024/02/18 00:24:51;;;;;;;11.10;7.70;;;6.30;99.90;;;;;;2048031;28;20756;-74
2024/02/18 00:25:51;;;;;;;12.05;8.20;;;6.20;99.90;;;;;;2051105;28;20219;-75
2024/02/18 00:26:52;;;;;;;13.00;8.40;;;6.10;99.90;;;;;;2061027;28;20226;-76
2024/02/18 00:27:53;;;;;;;12.70;9.10;;;6.10;99.90;;;;;;2053737;28;20234;-76
2024/02/18 00:28:53;;;;;;;12.80;8.50;;;6.00;99.90;;;;;;2061700;28;20225;-75
2024/02/18 00:29:54;;;;;;;17.40;10.77;;;5.90;99.90;;;;;;2051360;28;20214;-76
2024/02/18 00:30:55;;;;;;;17.87;9.70;;;5.80;99.90;;;;;;2054376;28;20223;-75
2024/02/18 00:31:55;;;;;;;16.27;9.73;;;5.70;99.90;;;;;;2060777;28;20714;-76
2024/02/18 00:32:56;;;;;;;15.97;9.77;;;5.60;99.90;;;;;;2051614;28;20244;-75
2024/02/18 00:33:57;;;;;;;16.23;10.20;;;5.60;99.90;;;;;;2062180;28;20222;-75
2024/02/18 00:34:57;;;;;;;17.57;11.40;;;5.50;99.90;;;;;;2069799;28;20232;-75
2024/02/18 00:35:58;;;;;;;15.57;9.40;;;5.60;99.90;;;;;;2070278;28;20260;-75
2024/02/18 00:36:59;;;;;;;15.83;9.40;;;5.60;99.90;;;;;;2059270;28;20680;-75
2024/02/18 00:38:00;;;;;;;15.57;9.87;;;5.50;99.90;;;;;;2053964;28;20190;-75
2024/02/18 00:39:00;;;;;;;16.30;10.67;;;5.50;99.90;;;;;;2045641;29;20199;-72
2024/02/18 00:40:01;;;;;;;18.47;11.57;;;5.50;99.90;;;;;;2044494;29;20672;-76
2024/02/18 00:41:06;;;;;;;16.17;10.20;;;5.40;99.90;;;;;;2045382;28;20214;-76
2024/02/18 00:42:10;;;;;;;14.60;9.55;;;5.40;99.90;;;;;;2047418;28;20586;-75
2024/02/18 00:43:10;;;;;;;14.95;9.80;;;5.40;99.90;;;;;;2053689;28;20202;-76
2024/02/18 00:44:11;;;;;;;14.47;10.23;;;5.30;99.90;;;;;;2038117;28;20223;-77
2024/02/18 00:45:13;;;;;;;15.53;10.87;;;5.30;99.90;;;;;;2038417;28;20656;-75
2024/02/18 00:46:13;;;;;;;15.95;10.65;;;5.30;99.90;;;;;;2048182;28;20195;-76
2024/02/18 00:47:14;;;;;;;17.47;11.27;;;5.30;99.90;;;;;;2046617;28;20583;-76
2024/02/18 00:48:16;;;;;;;16.80;10.33;;;5.20;99.90;;;;;;2049843;28;20219;-75
2024/02/18 00:49:17;;;;;;;13.82;10.00;;;5.20;99.90;;;;;;2040867;28;20176;-76
2024/02/18 00:50:18;;;;;;;18.88;11.07;;;5.20;99.90;;;;;;2047447;28;20246;-76
2024/02/18 00:51:18;;;;;;;19.97;11.10;;;5.10;99.90;;;;;;2040630;28;20236;-75
2024/02/18 00:52:19;;;;;;;15.37;9.67;;;5.10;99.90;;;;;;2036653;29;20228;-75
2024/02/18 00:53:20;;;;;;;18.23;11.37;;;5.00;99.90;;;;;;2038844;28;20283;-76
2024/02/18 00:54:21;;;;;;;19.23;10.73;;;5.00;99.90;;;;;;2045490;28;20239;-75
2024/02/18 00:55:22;;;;;;;20.30;11.27;;;5.00;99.90;;;;;;2050597;28;20232;-76
2024/02/18 00:56:25;;;;;;;20.98;11.15;;;5.00;99.90;;;;;;2045836;28;20232;-75
2024/02/18 00:57:25;;;;;;;19.58;12.45;;;5.00;99.90;;;;;;2038920;28;20242;-76
2024/02/18 00:58:26;;;;;;;21.37;11.40;;;5.00;99.90;;;;;;2037459;28;20684;-75
2024/02/18 00:59:27;;;;;;;20.63;12.47;;;5.00;99.90;;;;;;2037793;28;20239;-75
2024/02/18 01:00:27;;;;;;;16.13;10.67;;;5.00;99.90;;;;;;2046138;28;20224;-75
2024/02/18 01:01:28;;;;;;;18.53;11.23;;;5.00;99.90;;;;;;2046365;28;20239;-75
2024/02/18 01:02:30;;;;;;;23.57;11.43;;;5.10;99.90;;;;;;2046206;28;20228;-75
2024/02/18 01:03:30;;;;;;;22.05;11.73;;;5.00;99.90;;;;;;2038665;28;20236;-75
2024/02/18 01:04:31;;;;;;;19.77;10.67;;;5.00;99.90;;;;;;2054001;28;20219;-75
2024/02/18 01:05:32;;;;;;;18.23;11.13;;;5.00;99.90;;;;;;2046143;28;20606;-76
2024/02/18 01:06:32;;;;;;;20.27;11.10;;;5.00;99.90;;;;;;2046081;28;20701;-76
2024/02/18 01:07:33;;;;;;;19.47;12.83;;;5.00;99.90;;;;;;2054142;28;20250;-76
2024/02/18 01:08:34;;;;;;;20.50;13.40;;;5.00;99.90;;;;;;2050852;28;20225;-76
2024/02/18 01:09:34;;;;;;;20.93;12.37;;;5.20;99.90;;;;;;2046274;28;20274;-76
2024/02/18 01:10:35;;;;;;;31.10;14.67;;;5.20;99.90;;;;;;2054111;28;20731;-76
2024/02/18 01:11:36;;;;;;;25.27;13.77;;;5.20;99.90;;;;;;2045426;28;20617;-76
2024/02/18 01:12:36;;;;;;;56.90;19.47;;;5.20;99.90;;;;;;2044915;28;20220;-75
2024/02/18 01:13:37;;;;;;;23.47;12.27;;;5.30;99.90;;;;;;2038139;28;20639;-76
2024/02/18 01:14:38;;;;;;;25.00;13.60;;;5.30;99.90;;;;;;2037745;29;20328;-75
2024/02/18 01:15:39;;;;;;;25.20;12.60;;;5.40;99.90;;;;;;2044298;28;20610;-75
2024/02/18 01:16:40;;;;;;;29.50;14.52;;;5.50;99.90;;;;;;2054125;28;20297;-75
2024/02/18 01:17:41;;;;;;;25.65;13.85;;;5.50;99.90;;;;;;2062125;28;20218;-75
2024/02/18 01:18:43;;;;;;;23.23;12.67;;;5.60;99.90;;;;;;2046216;28;20223;-75
2024/02/18 01:19:44;;;;;;;25.30;11.90;;;5.70;99.90;;;;;;2045691;28;20226;-75
2024/02/18 01:20:44;;;;;;;106.30;22.33;;;5.70;99.90;;;;;;2039893;28;20743;-75
2024/02/18 01:21:45;;;;;;;34.07;13.93;;;5.60;99.90;;;;;;2060367;28;20222;-75
2024/02/18 01:22:46;;;;;;;38.23;13.70;;;5.60;99.90;;;;;;2054138;28;20310;-75
2024/02/18 01:23:46;;;;;;;23.17;11.20;;;5.70;99.90;;;;;;2049783;28;20723;-74
2024/02/18 01:24:47;;;;;;;34.47;12.77;;;5.70;99.90;;;;;;2051414;28;20247;-74
2024/02/18 01:25:48;;;;;;;76.40;16.20;;;5.80;99.90;;;;;;2054006;28;20222;-75
2024/02/18 01:26:48;;;;;;;40.87;13.30;;;5.80;99.90;;;;;;2046133;28;20228;-75
2024/02/18 01:27:50;;;;;;;28.80;12.00;;;5.80;99.90;;;;;;2053440;28;20254;-75
2024/02/18 01:28:51;;;;;;;30.48;13.50;;;5.90;99.90;;;;;;2046402;28;20605;-76
2024/02/18 01:29:52;;;;;;;35.13;13.93;;;5.80;99.90;;;;;;2046365;28;20223;-75
2024/02/18 01:30:53;;;;;;;63.97;12.73;;;5.80;99.90;;;;;;2046201;28;20728;-75
2024/02/18 01:31:53;;;;;;;70.23;15.93;;;5.90;99.90;;;;;;2057366;28;20246;-75
2024/02/18 01:32:54;;;;;;;143.40;23.03;;;5.80;99.90;;;;;;2054065;28;20224;-74
2024/02/18 01:33:55;;;;;;;171.47;23.77;;;5.60;99.90;;;;;;2050232;28;20228;-75
2024/02/18 01:34:55;;;;;;;164.40;25.73;;;5.60;99.90;;;;;;2050075;28;20889;-76
2024/02/18 01:35:56;;;;;;;32.43;11.40;;;5.50;99.90;;;;;;2045827;28;20234;-75
2024/02/18 01:36:57;;;;;;;21.67;11.67;;;5.50;99.90;;;;;;2062220;28;20222;-76
2024/02/18 01:37:57;;;;;;;24.93;11.93;;;5.60;99.90;;;;;;2048474;28;20231;-75
2024/02/18 01:38:58;;;;;;;23.20;12.10;;;5.50;99.90;;;;;;2045287;28;20709;-75
2024/02/18 01:39:59;;;;;;;38.87;10.00;;;5.50;99.90;;;;;;2045960;28;20216;-75
2024/02/18 01:40:59;;;;;;;22.60;12.00;;;5.50;99.90;;;;;;2047205;28;20185;-75
2024/02/18 01:42:00;;;;;;;28.20;12.33;;;5.40;99.90;;;;;;2054640;28;20650;-76
2024/02/18 01:43:02;;;;;;;75.20;14.47;;;5.50;99.90;;;;;;2030777;29;20185;-76
2024/02/18 01:44:03;;;;;;;90.82;14.70;;;5.50;99.90;;;;;;2042703;28;20242;-75
2024/02/18 01:45:12;;;;;;;220.88;27.88;;;5.50;99.90;;;;;;2042086;28;20190;-76
2024/02/18 01:46:12;;;;;;;93.00;15.15;;;5.40;99.90;;;;;;2042179;28;20730;-75
2024/02/18 01:47:13;;;;;;;106.63;19.70;;;5.40;99.90;;;;;;2054337;28;20191;-75
2024/02/18 01:48:15;;;;;;;60.37;13.80;;;5.40;99.90;;;;;;2043878;28;20324;-75
2024/02/18 01:49:17;;;;;;;80.03;15.32;;;5.50;99.90;;;;;;2040796;28;20191;-76
2024/02/18 01:50:18;;;;;;;17.85;10.88;;;5.40;99.90;;;;;;2051439;28;20256;-75
2024/02/18 01:51:23;;;;;;;30.27;12.18;;;5.40;99.90;;;;;;2047979;28;20318;-75
2024/02/18 01:52:25;;;;;;;22.70;10.57;;;5.40;99.90;;;;;;2048665;28;20235;-76
2024/02/18 01:53:27;;;;;;;19.10;11.05;;;5.40;99.90;;;;;;2041905;28;20259;-75
2024/02/18 01:54:33;;;;;;;20.80;11.13;;;5.40;99.90;;;;;;2037598;28;20236;-76
2024/02/18 01:55:34;;;;;;;12.18;8.85;;;5.40;99.90;;;;;;2034547;28;20307;-75
2024/02/18 01:56:35;;;;;;;13.50;9.07;;;5.40;99.90;;;;;;2046477;28;20253;-75
2024/02/18 01:57:37;;;;;;;15.83;8.97;;;5.30;99.90;;;;;;2051002;28;20242;-75
2024/02/18 01:58:38;;;;;;;14.18;9.07;;;5.30;99.90;;;;;;2048386;28;20211;-75
2024/02/18 01:59:41;;;;;;;14.30;8.75;;;5.40;99.90;;;;;;2037978;28;20299;-75
2024/02/18 02:00:43;;;;;;;16.60;9.82;;;5.30;99.90;;;;;;2045655;28;20215;-75
2024/02/18 02:01:44;;;;;;;12.73;9.82;;;5.20;99.90;;;;;;2054935;28;20234;-75
2024/02/18 02:02:49;;;;;;;16.13;8.97;;;5.20;99.90;;;;;;2045175;28;20229;-75
2024/02/18 02:03:51;;;;;;;14.20;9.27;;;5.20;99.90;;;;;;2051958;28;20254;-75
2024/02/18 02:04:52;;;;;;;15.90;8.60;;;5.10;99.90;;;;;;2037512;28;20252;-75
2024/02/18 02:05:54;;;;;;;11.13;7.72;;;5.00;99.90;;;;;;2037031;28;20718;-75
2024/02/18 02:06:58;;;;;;;12.80;9.15;;;5.00;99.90;;;;;;2051982;28;20226;-75
2024/02/18 02:08:01;;;;;;;13.85;8.45;;;5.00;99.90;;;;;;2043072;28;20239;-74
2024/02/18 02:09:02;;;;;;;15.45;9.68;;;5.00;99.90;;;;;;2027421;28;20313;-76
2024/02/18 02:10:04;;;;;;;29.75;11.38;;;5.10;99.90;;;;;;2051362;28;20210;-76
2024/02/18 02:11:04;;;;;;;21.63;11.93;;;4.90;99.90;;;;;;2041768;28;20180;-75
2024/02/18 02:12:06;;;;;;;13.97;9.17;;;4.80;99.90;;;;;;2045035;28;20234;-76
2024/02/18 02:13:06;;;;;;;17.17;10.38;;;4.90;99.90;;;;;;2052359;28;20180;-75
2024/02/18 02:14:07;;;;;;;15.33;10.13;;;4.90;99.90;;;;;;2051179;28;20665;-76
2024/02/18 02:15:10;;;;;;;19.63;10.33;;;5.00;99.90;;;;;;2044347;28;20183;-75
2024/02/18 02:16:11;;;;;;;17.48;10.13;;;4.90;99.90;;;;;;2046292;28;20215;-75
2024/02/18 02:17:14;;;;;;;33.50;11.83;;;5.00;99.90;;;;;;2043253;28;20745;-75
2024/02/18 02:18:14;;;;;;;22.70;10.73;;;4.90;99.90;;;;;;2029252;29;20184;-76
2024/02/18 02:19:15;;;;;;;16.23;9.90;;;5.00;99.90;;;;;;2034380;28;20585;-76
2024/02/18 02:20:16;;;;;;;17.30;10.17;;;5.00;99.90;;;;;;2044799;28;20732;-75
2024/02/18 02:21:17;;;;;;;19.35;10.25;;;5.00;99.90;;;;;;2052936;28;20187;-75
2024/02/18 02:22:18;;;;;;;16.33;9.53;;;4.90;99.90;;;;;;2052840;28;20251;-74
2024/02/18 02:23:19;;;;;;;16.10;9.18;;;4.90;99.90;;;;;;2058097;28;20608;-74
2024/02/18 02:24:19;;;;;;;15.73;9.37;;;4.90;99.90;;;;;;2053483;28;20253;-75
2024/02/18 02:25:20;;;;;;;15.00;9.23;;;4.90;99.90;;;;;;2036247;28;20728;-74
2024/02/18 02:26:24;;;;;;;22.83;10.57;;;4.90;99.90;;;;;;2044599;28;20269;-75
2024/02/18 02:27:33;;;;;;;14.35;9.60;;;4.90;99.90;;;;;;2050248;28;20231;-76
2024/02/18 02:28:42;;;;;;;17.10;9.60;;;4.90;99.90;;;;;;2046903;28;20231;-76
2024/02/18 02:29:43;;;;;;;12.05;8.32;;;4.80;99.90;;;;;;2040197;28;20601;-76
2024/02/18 02:30:46;;;;;;;23.45;9.15;;;4.80;99.90;;;;;;2035224;28;20236;-76
2024/02/18 02:31:47;;;;;;;17.83;9.50;;;4.80;99.90;;;;;;2045386;28;20803;-75
2024/02/18 02:32:48;;;;;;;14.50;8.43;;;4.70;99.90;;;;;;2045671;28;20223;-75
2024/02/18 02:33:48;;;;;;;13.50;7.73;;;4.60;99.90;;;;;;2045545;28;20298;-75
2024/02/18 02:34:49;;;;;;;15.57;8.77;;;4.70;99.90;;;;;;2052567;28;20359;-76
2024/02/18 02:35:50;;;;;;;21.57;10.73;;;4.60;99.90;;;;;;2051884;28;20227;-75
2024/02/18 02:36:50;;;;;;;15.90;9.03;;;4.70;99.90;;;;;;2045446;28;20223;-75
2024/02/18 02:37:52;;;;;;;14.93;8.77;;;4.70;99.90;;;;;;2051533;28;20257;-75
2024/02/18 02:38:53;;;;;;;13.00;7.65;;;4.60;99.90;;;;;;2048105;28;20234;-75
2024/02/18 02:39:53;;;;;;;12.47;8.27;;;4.60;99.90;;;;;;2052363;28;20317;-75
2024/02/18 02:40:54;;;;;;;14.23;9.33;;;4.60;99.90;;;;;;2046205;28;20274;-75
2024/02/18 02:41:55;;;;;;;14.50;9.10;;;4.60;99.90;;;;;;2044230;28;20299;-75
2024/02/18 02:42:56;;;;;;;11.53;8.30;;;4.60;99.90;;;;;;2045458;28;21136;-75
2024/02/18 02:43:56;;;;;;;12.83;8.83;;;4.70;99.90;;;;;;2061075;28;20473;-75
2024/02/18 02:44:57;;;;;;;13.47;9.47;;;4.60;99.90;;;;;;2049402;28;20223;-76
2024/02/18 02:45:58;;;;;;;13.20;9.07;;;4.60;99.90;;;;;;2051926;28;20226;-75
2024/02/18 02:46:58;;;;;;;12.37;8.40;;;4.60;99.90;;;;;;2057292;28;20680;-74
2024/02/18 02:47:59;;;;;;;13.93;8.30;;;4.50;99.90;;;;;;2060263;28;20214;-76
2024/02/18 02:49:00;;;;;;;12.73;8.33;;;4.50;99.90;;;;;;2052324;28;20179;-75
2024/02/18 02:50:00;;;;;;;15.00;9.30;;;4.50;99.90;;;;;;2052387;28;20409;-75
2024/02/18 02:51:01;;;;;;;14.27;9.40;;;4.50;99.90;;;;;;2060035;28;20175;-76
2024/02/18 02:52:02;;;;;;;15.97;9.40;;;4.50;99.90;;;;;;2046234;28;20596;-75
2024/02/18 02:53:03;;;;;;;14.27;8.23;;;4.50;99.90;;;;;;2045354;28;20223;-75
2024/02/18 02:54:04;;;;;;;15.95;8.98;;;4.50;99.90;;;;;;2052759;28;20256;-76
2024/02/18 02:55:05;;;;;;;14.57;9.32;;;4.70;99.90;;;;;;2060927;28;20195;-76
2024/02/18 02:56:09;;;;;;;15.50;9.05;;;4.60;99.90;;;;;;2052561;28;20315;-75
2024/02/18 02:57:10;;;;;;;12.88;8.32;;;4.70;99.90;;;;;;2052113;28;20187;-76
2024/02/18 02:58:10;;;;;;;13.67;8.50;;;4.80;99.90;;;;;;2051910;28;20228;-75
2024/02/18 02:59:11;;;;;;;12.90;8.33;;;4.80;99.90;;;;;;2059262;28;20194;-75
2024/02/18 03:00:12;;;;;;;13.77;8.53;;;4.80;99.90;;;;;;2054080;28;20203;-75
2024/02/18 03:01:13;;;;;;;13.45;9.18;;;4.90;99.90;;;;;;2050497;28;20221;-76
2024/02/18 03:02:13;;;;;;;12.90;8.73;;;4.90;99.90;;;;;;2043929;28;20207;-75
2024/02/18 03:03:14;;;;;;;11.60;7.27;;;4.90;99.90;;;;;;2053075;28;20630;-75
2024/02/18 03:04:15;;;;;;;12.77;8.43;;;4.90;99.90;;;;;;2042382;28;20192;-75
2024/02/18 03:05:15;;;;;;;14.00;9.50;;;4.90;99.90;;;;;;2038538;29;20216;-77
2024/02/18 03:06:16;;;;;;;14.10;8.53;;;4.90;99.90;;;;;;2046774;28;20203;-76
2024/02/18 03:07:17;;;;;;;14.33;9.03;;;5.00;99.90;;;;;;2044610;28;20339;-77
2024/02/18 03:08:17;;;;;;;13.27;9.00;;;5.00;99.90;;;;;;2045933;28;20244;-76
2024/02/18 03:09:18;;;;;;;17.50;9.97;;;5.10;99.90;;;;;;2052681;28;20329;-75
2024/02/18 03:10:19;;;;;;;13.10;8.50;;;5.10;99.90;;;;;;2053862;28;20269;-75
2024/02/18 03:11:20;;;;;;;13.93;8.93;;;5.20;99.90;;;;;;2044356;28;20666;-75
2024/02/18 03:12:20;;;;;;;12.93;8.73;;;5.20;99.90;;;;;;2044718;28;20322;-75
2024/02/18 03:13:21;;;;;;;11.77;8.67;;;5.10;99.90;;;;;;2053006;28;20326;-75
2024/02/18 03:14:22;;;;;;;11.80;8.43;;;5.10;99.90;;;;;;2049148;28;20295;-76
2024/02/18 03:15:22;;;;;;;14.70;10.07;;;5.10;99.90;;;;;;2053476;28;20270;-75
2024/02/18 03:16:23;;;;;;;14.80;9.23;;;5.10;99.90;;;;;;2041892;28;20235;-75
2024/02/18 03:17:25;;;;;;;16.57;9.63;;;5.00;99.90;;;;;;2052027;28;20743;-75
2024/02/18 03:18:25;;;;;;;15.48;9.65;;;5.00;99.90;;;;;;2048497;28;20607;-75
2024/02/18 03:19:26;;;;;;;15.17;9.30;;;5.10;99.90;;;;;;2045794;28;20277;-75
2024/02/18 03:20:27;;;;;;;17.67;10.03;;;5.10;99.90;;;;;;2057001;28;20733;-75
2024/02/18 03:21:28;;;;;;;13.40;8.63;;;5.10;99.90;;;;;;2058909;28;20280;-75
2024/02/18 03:22:29;;;;;;;12.43;7.93;;;5.20;99.90;;;;;;2053871;28;20800;-76
2024/02/18 03:23:29;;;;;;;13.87;8.73;;;5.20;99.90;;;;;;2048751;28;20242;-75
2024/02/18 03:24:30;;;;;;;15.93;8.40;;;5.20;99.90;;;;;;2039668;29;20465;-76
2024/02/18 03:25:31;;;;;;;13.23;9.37;;;5.20;99.90;;;;;;2052743;28;20267;-75
2024/02/18 03:26:32;;;;;;;14.27;7.40;;;5.40;99.90;;;;;;2052510;28;20235;-75
2024/02/18 03:27:32;;;;;;;10.77;7.03;;;5.10;99.90;;;;;;2052500;28;20603;-76
2024/02/18 03:28:33;;;;;;;8.67;6.53;;;5.00;99.90;;;;;;2057585;28;20473;-75
2024/02/18 03:29:34;;;;;;;9.47;6.30;;;5.00;99.90;;;;;;2047119;28;20222;-77
2024/02/18 03:30:34;;;;;;;12.63;7.53;;;5.00;99.90;;;;;;2046168;28;20228;-75
2024/02/18 03:31:35;;;;;;;10.23;7.13;;;5.10;99.90;;;;;;2052848;28;20223;-75
2024/02/18 03:32:36;;;;;;;9.07;6.57;;;5.00;99.90;;;;;;2054190;28;20591;-75
2024/02/18 03:33:37;;;;;;;11.50;7.63;;;5.00;99.90;;;;;;2051003;28;20223;-75
2024/02/18 03:34:38;;;;;;;10.77;7.03;;;5.00;99.90;;;;;;2055649;28;20242;-75
2024/02/18 03:35:38;;;;;;;10.27;6.90;;;5.00;99.90;;;;;;2049110;28;20223;-75
2024/02/18 03:36:39;;;;;;;10.83;7.43;;;4.90;99.90;;;;;;2041766;28;20324;-75
2024/02/18 03:37:39;;;;;;;9.67;6.97;;;4.90;99.90;;;;;;2049589;28;20245;-75
2024/02/18 03:38:40;;;;;;;11.80;7.43;;;4.90;99.90;;;;;;2059740;28;20297;-75
2024/02/18 03:39:41;;;;;;;9.50;7.10;;;4.90;99.90;;;;;;2055668;28;20222;-75
2024/02/18 03:40:42;;;;;;;10.37;7.27;;;4.90;99.90;;;;;;2056871;28;20831;-75
2024/02/18 03:41:42;;;;;;;12.50;6.90;;;4.80;99.90;;;;;;2053120;28;20225;-75
2024/02/18 03:42:43;;;;;;;11.27;7.57;;;4.80;99.90;;;;;;2050218;28;20306;-75
2024/02/18 03:43:44;;;;;;;10.47;6.50;;;4.80;99.90;;;;;;2048608;28;20617;-75
2024/02/18 03:44:44;;;;;;;9.00;6.47;;;4.80;99.90;;;;;;2059515;28;20241;-75
2024/02/18 03:45:45;;;;;;;8.43;5.57;;;4.70;99.90;;;;;;2047004;28;20262;-75
2024/02/18 03:46:46;;;;;;;10.37;6.63;;;4.60;99.90;;;;;;2053099;28;20219;-75
2024/02/18 03:47:46;;;;;;;11.03;6.93;;;4.70;99.90;;;;;;2060751;28;20597;-75
2024/02/18 03:48:47;;;;;;;8.57;5.23;;;4.70;99.90;;;;;;2061669;28;20230;-76
2024/02/18 03:49:47;;;;;;;8.77;6.17;;;4.70;99.90;;;;;;2053008;28;20222;-75
2024/02/18 03:50:48;;;;;;;9.87;6.47;;;4.80;99.90;;;;;;2045706;28;20283;-76
2024/02/18 03:51:49;;;;;;;9.90;6.97;;;4.80;99.90;;;;;;2051998;28;20231;-75
2024/02/18 03:52:50;;;;;;;8.50;6.17;;;4.80;99.90;;;;;;2051952;28;20286;-75
2024/02/18 03:53:50;;;;;;;9.10;6.37;;;4.80;99.90;;;;;;2049504;28;20701;-76
2024/02/18 03:54:51;;;;;;;11.30;7.23;;;4.70;99.90;;;;;;2049169;28;20239;-75
2024/02/18 03:55:52;;;;;;;9.27;6.77;;;4.60;99.90;;;;;;2052714;28;20246;-75
2024/02/18 03:56:52;;;;;;;8.93;5.90;;;4.60;99.90;;;;;;2053176;28;20297;-76
2024/02/18 03:57:53;;;;;;;10.30;6.77;;;4.60;99.90;;;;;;2038728;28;20235;-75
2024/02/18 03:58:54;;;;;;;9.97;6.30;;;4.60;99.90;;;;;;2042034;28;20606;-75
2024/02/18 03:59:54;;;;;;;9.13;6.90;;;4.60;99.90;;;;;;2060910;28;20362;-75
2024/02/18 04:00:55;;;;;;;11.60;7.07;;;4.60;99.90;;;;;;2050488;28;20243;-75
2024/02/18 04:01:56;;;;;;;10.00;7.07;;;4.60;99.90;;;;;;2045293;28;20247;-75
2024/02/18 04:02:56;;;;;;;8.63;7.00;;;4.70;99.90;;;;;;2045769;28;20265;-76
2024/02/18 04:03:57;;;;;;;9.07;6.00;;;4.70;99.90;;;;;;2054286;28;20700;-75
2024/02/18 04:04:58;;;;;;;11.13;7.37;;;4.70;99.90;;;;;;2059964;28;20845;-75
2024/02/18 04:05:58;;;;;;;9.30;6.57;;;4.60;99.90;;;;;;2049569;28;20226;-74
2024/02/18 04:06:59;;;;;;;9.63;5.80;;;4.70;99.90;;;;;;2061609;28;20221;-75
2024/02/18 04:08:00;;;;;;;10.80;6.43;;;4.70;99.90;;;;;;2046336;28;20302;-75
2024/02/18 04:09:00;;;;;;;11.57;6.83;;;4.80;99.90;;;;;;2045513;28;20206;-75
2024/02/18 04:10:05;;;;;;;9.23;6.67;;;4.80;99.90;;;;;;2050718;28;20187;-76
2024/02/18 04:11:06;;;;;;;9.88;6.40;;;4.90;99.90;;;;;;2045638;28;20186;-75
2024/02/18 04:12:08;;;;;;;8.82;6.53;;;4.90;99.90;;;;;;2053532;28;20591;-75
2024/02/18 04:13:08;;;;;;;9.02;6.38;;;5.00;99.90;;;;;;2053656;28;20190;-75
2024/02/18 04:14:09;;;;;;;9.37;6.70;;;4.90;99.90;;;;;;2045385;28;20266;-75
2024/02/18 04:15:10;;;;;;;10.37;7.03;;;5.00;99.90;;;;;;2037518;28;20181;-75
2024/02/18 04:16:10;;;;;;;10.30;6.80;;;4.90;99.90;;;;;;2037931;29;20755;-75
2024/02/18 04:17:11;;;;;;;10.07;6.73;;;4.90;99.90;;;;;;2044397;28;20594;-75
2024/02/18 04:18:12;;;;;;;11.80;7.50;;;4.90;99.90;;;;;;2053390;28;20210;-76
2024/02/18 04:19:13;;;;;;;11.33;7.67;;;5.00;99.90;;;;;;2042210;28;20179;-75
2024/02/18 04:20:13;;;;;;;10.57;7.77;;;5.00;99.90;;;;;;2059500;28;20209;-75
2024/02/18 04:21:14;;;;;;;10.27;7.43;;;4.90;99.90;;;;;;2047129;28;20670;-75
2024/02/18 04:22:15;;;;;;;11.67;7.70;;;4.90;99.90;;;;;;2043819;28;20592;-76
2024/02/18 04:23:15;;;;;;;9.80;7.40;;;4.90;99.90;;;;;;2031931;29;20201;-75
2024/02/18 04:24:16;;;;;;;10.27;6.50;;;4.90;99.90;;;;;;2044842;28;20191;-75
2024/02/18 04:25:17;;;;;;;12.40;7.00;;;4.90;99.90;;;;;;2047226;28;20246;-75
2024/02/18 04:26:17;;;;;;;11.07;7.50;;;4.90;99.90;;;;;;2043902;29;20421;-75
2024/02/18 04:27:19;;;;;;;11.23;7.83;;;5.00;99.90;;;;;;2053425;28;20815;-75
2024/02/18 04:28:20;;;;;;;11.40;7.28;;;5.00;99.90;;;;;;2052847;28;20692;-75
2024/02/18 04:29:21;;;;;;;11.03;7.00;;;5.00;99.90;;;;;;2040334;28;20302;-75
2024/02/18 04:30:21;;;;;;;8.70;6.57;;;5.00;99.90;;;;;;2045896;28;20298;-75
2024/02/18 04:31:22;;;;;;;10.80;7.07;;;5.00;99.90;;;;;;2038371;28;20240;-76
2024/02/18 04:32:23;;;;;;;9.37;6.57;;;4.90;99.90;;;;;;2045959;28;20232;-77
2024/02/18 04:33:23;;;;;;;10.30;7.00;;;5.00;99.90;;;;;;2049230;28;20713;-76
2024/02/18 04:34:24;;;;;;;13.23;8.17;;;5.00;99.90;;;;;;2042748;28;20242;-76
2024/02/18 04:35:25;;;;;;;11.50;7.23;;;5.10;99.90;;;;;;2053362;28;20719;-76
2024/02/18 04:36:25;;;;;;;10.47;7.57;;;5.20;99.90;;;;;;2057590;28;20246;-75
2024/02/18 04:37:26;;;;;;;13.73;8.37;;;5.20;99.90;;;;;;2057390;28;20261;-75
2024/02/18 04:38:27;;;;;;;14.53;8.97;;;5.20;99.90;;;;;;2042106;28;20262;-75
2024/02/18 04:39:27;;;;;;;23.20;13.50;;;5.20;99.90;;;;;;2046266;28;20663;-76
2024/02/18 04:40:28;;;;;;;19.73;11.97;;;5.30;99.90;;;;;;2049395;28;20326;-75
2024/02/18 04:41:29;;;;;;;14.53;10.03;;;5.30;99.90;;;;;;2049714;28;20807;-75
2024/02/18 04:42:29;;;;;;;17.97;10.90;;;5.30;99.90;;;;;;2045549;28;20318;-76
2024/02/18 04:43:30;;;;;;;13.43;8.30;;;5.20;99.90;;;;;;2037533;28;20232;-75
2024/02/18 04:44:31;;;;;;;9.17;6.70;;;5.20;99.90;;;;;;2046497;28;20666;-75
2024/02/18 04:45:31;;;;;;;11.40;6.90;;;5.10;99.90;;;;;;2054042;28;20238;-74
2024/02/18 04:46:32;;;;;;;11.27;7.40;;;5.00;99.90;;;;;;2054835;28;20238;-75
2024/02/18 04:47:33;;;;;;;10.23;7.30;;;5.00;99.90;;;;;;2050588;28;21129;-76
2024/02/18 04:48:38;;;;;;;10.70;7.00;;;5.00;99.90;;;;;;2053956;28;20246;-75
2024/02/18 04:49:39;;;;;;;11.45;7.20;;;5.00;99.90;;;;;;2045707;28;20233;-75
2024/02/18 04:50:40;;;;;;;10.20;7.18;;;5.10;99.90;;;;;;2042894;28;20283;-75
2024/02/18 04:51:40;;;;;;;11.40;7.37;;;5.10;99.90;;;;;;2058590;28;20684;-75
2024/02/18 04:52:41;;;;;;;10.57;7.60;;;5.00;99.90;;;;;;2052696;28;20323;-75
2024/02/18 04:53:42;;;;;;;9.13;6.33;;;4.90;99.90;;;;;;2053606;28;20231;-75
2024/02/18 04:54:42;;;;;;;11.10;7.00;;;4.90;99.90;;;;;;2048860;28;20696;-75
2024/02/18 04:55:43;;;;;;;9.97;7.27;;;4.90;99.90;;;;;;2057420;28;20262;-75
2024/02/18 04:56:44;;;;;;;10.27;7.30;;;4.90;99.90;;;;;;2054098;28;20231;-75
2024/02/18 04:57:44;;;;;;;11.07;7.23;;;4.90;99.90;;;;;;2046238;28;20238;-75
2024/02/18 04:58:45;;;;;;;10.07;6.83;;;5.00;99.90;;;;;;2039363;28;20228;-74
2024/02/18 04:59:45;;;;;;;14.03;8.00;;;5.00;99.90;;;;;;2048315;28;20223;-74
2024/02/18 05:00:48;;;;;;;13.67;8.73;;;4.90;99.90;;;;;;2038891;28;20311;-75
2024/02/18 05:01:48;;;;;;;14.00;8.57;;;4.90;99.90;;;;;;2043795;28;20334;-75
2024/02/18 05:02:49;;;;;;;11.87;7.37;;;4.90;99.90;;;;;;2053271;28;20647;-74
2024/02/18 05:03:50;;;;;;;13.90;8.50;;;4.90;99.90;;;;;;2040954;28;20224;-75
2024/02/18 05:04:51;;;;;;;15.60;9.50;;;4.80;99.90;;;;;;2043851;29;20219;-75
2024/02/18 05:05:52;;;;;;;11.13;7.00;;;4.90;99.90;;;;;;2058171;28;20307;-75
2024/02/18 05:06:52;;;;;;;12.70;8.13;;;4.90;99.90;;;;;;2052261;28;20475;-75
2024/02/18 05:07:53;;;;;;;12.97;7.63;;;4.90;99.90;;;;;;2067000;28;20221;-75
2024/02/18 05:08:54;;;;;;;10.37;7.60;;;4.90;99.90;;;;;;2053249;28;20358;-75
2024/02/18 05:09:55;;;;;;;11.10;8.05;;;4.80;99.90;;;;;;2037833;28;20668;-75
2024/02/18 05:10:57;;;;;;;11.87;7.40;;;4.80;99.90;;;;;;2043622;29;20262;-74
2024/02/18 05:11:57;;;;;;;12.25;7.53;;;4.80;99.90;;;;;;2041849;29;20220;-75
2024/02/18 05:12:58;;;;;;;11.87;7.87;;;4.70;99.90;;;;;;2051799;28;20326;-74
2024/02/18 05:13:59;;;;;;;13.43;8.33;;;4.70;99.90;;;;;;2044978;28;20278;-74
2024/02/18 05:15:01;;;;;;;10.48;6.97;;;4.70;99.90;;;;;;2052795;28;20179;-74
2024/02/18 05:16:01;;;;;;;9.77;6.70;;;4.70;99.90;;;;;;2059855;28;20233;-74
2024/02/18 05:17:02;;;;;;;10.73;7.17;;;4.60;99.90;;;;;;2043824;29;20191;-75